Terminal Aerodrome Forecast
Issued by NWS Quad Cities IA IL

Home | Current Version | Previous Version | Text Only | Print | Product List | Glossary On
Versions: 1 2 3 4 5 6 7 8 9 10 11 12 13 14 15 16
000
FTUS43 KDVN 150500
TAFDBQ
TAF
KDBQ 150520Z 1506/1606 20004KT P6SM BKN050
      TEMPO 1512/1514 -SHRA BKN025
     FM151400 15004KT 4SM -RA BR OVC025
     FM151700 30010KT P6SM OVC025
      TEMPO 1517/1519 -SHRA
     FM152000 35010KT P6SM BKN035
     FM160000 35003KT P6SM SKC=

USA.gov is the U.S. government's official web portal to all federal, state and local government web resources and services.